APRS [IN73EG], 0 Stunde(n), DL3EL [17:44:41, 0s].
EA1AQK 43.16.49N 005.35.99WIN73EG 2.077km 77°ENE15:30:57ZMMDVM MMDVM HS Hat 439.8500/439.8500 CC1
EA1FLQ 43.22.00N 005.36.35WIN73EI 10.768km N15:30:48ZMMDVM DVMega 430.9750/430.9750 CC1
EB1DGC 43.12.60N 005.45.59WIN73CF 12.855km 238°WSW15:31:04ZMMDVM MMDVM HS Hat 433.4500/433.4500 CC1
EA1JBL 43.12.28N 005.47.42WIN73CE 15.280km 241°WSW15:34:08ZMMDVM DVMega 435.3000/435.3000 CC1
EA1HWA 43.12.00N 005.47.40WIN73CE 15.510km 240°WSW15:31:39ZMMDVM MMDVM HS Hat 433.4500/433.4500 CC1
ED1ZAD 43.07.90N 005.38.52WIN73ED 15.512km 185°S15:35:06ZED1ZAD-3 APRS Digi/Igate(3ED1ZAD-3)
EA1L 43.20.38N 005.51.13WIN73BI 19.929km 293°WNW15:20:00ZWind 038°/004kn, Böen bis 010kn, Temp 18.33c, Regen 0.0mm, letzte 24h 4.1mm, seit 0h 4.1mm, Baro 1003.5h, Hum: 88%(3EA1L-13)
ea1l@ure.es V=11.7V,T=??.?C(2EA1L)
LEHU 43.22.63N 005.49.57WIN73CJ 20.125km 306°NW15:30:03ZHelipuerto del HUCA: LEAS 201500Z 12007KT 080V160 9999 FEW030 SCT075 17/15 Q1005 NOSIG=
EA1RCG 43.09.45N 005.49.78WIN73CD 20.824km 233°SW15:34:13ZGRUPO RADIO GALENA (GRG) 433.4500/433.4500 CC1
33D00 43.21.63N 005.51.13WIN73BI 20.907km 299°WNW15:02:17Z33-D-00 Protección Civil REMER / Delegación del Gobierno en Asturias
ED1ZAS 43.27.52N 005.40.17WIN73DL 21.215km 350°N15:35:30ZRD985 438.2250/430.6250 CC1
EA1IPU 43.25.79N 005.46.19WIN73CK 21.229km 327°NNW15:31:12ZMMDVM MMDVM HS Hat 439.8000/439.8000 CC1
EA1IN 43.25.16N 005.47.43WIN73CK 21.263km 321°NW15:34:41ZMMDVM MMDVM HS Hat 434.7000/434.7000 CC1
ED1ZAE 43.27.99N 005.40.54WIN73DL 22.142km 349°N15:36:19ZWIDE3-3 ESAS3-3 IN73DL WWW.EA1URG.ORG(3ED1ZAE-3)
EA1YR 43.22.09N 005.51.86WIN73BI 22.200km 299°WNW15:34:22ZMMDVM DVS 434.3500/434.3500 CC1
EA1HJA 43.28.10N 005.30.45WIN73FL 23.926km 23°NNE15:43:32Z IN73FL WX3IN1+ 2.0 - V=13.6V,TX TEMP=44.9C
EA1HJA@URE.ES(2EA1HJA-2)
ED1ZAU 43.23.04N 005.52.75WIN73BJ 24.114km 302°WNW15:35:31ZRD625 438.5000/430.9000 CC1
LEMR 43.25.83N 005.49.60WIN73CK 24.114km 317°NW15:30:04ZAerodromo de la Morgal: LEAS 201500Z 12007KT 080V160 9999 FEW030 SCT075 17/15 Q1005 NOSIG=
LEGM 43.26.15N 005.49.84WIN73CK 24.774km 318°NW15:30:03ZHelipuerto de La Morgal: LEAS 201500Z 12007KT 080V160 9999 FEW030 SCT075 17/15 Q1005 NOSIG=
EB1GEM 43.30.00N 005.36.07WIN73EM 25.573km N15:43:16ZWX3in1Plus2.0 U=13.3V,T=??.?C/??.?F(3EB1GEM-3)
EA1FHR 43.28.72N 005.26.41WIN73GL 27.510km 33°NNE15:32:26ZMMDVM MMDVM HS Hat 439.1500/439.1500 CC1
EA1HWD 43.28.96N 005.26.30WIN73GL 27.971km 33°NNE15:33:45Z144.575FM Local frecuency VHF. 434.2500/434.2500 CC1
EA1JAY 43.29.32N 005.26.60WIN73GL 28.339km 31°NNE15:33:33Z434.525MHz Nodo TETRA DMO(3EA1JAY-4)
EA1JAY(2EA1JAY-2)
EA1JAY 438.8000/438.8000 CC1(2EA1JAY)
EA1DZR 43.31.47N 005.40.00WIN73DM 28.407km 353°N15:35:06ZMMDVM DVMega 431.1000/431.1000 CC1
EA1FFA 43.31.53N 005.40.64WIN73DM 28.649km 352°N15:33:43ZMMDVM MMDVM HS Hat 438.8000/438.8000 CC1
EA1IEJ 43.31.81N 005.40.64WIN73DM 29.162km 352°N15:33:54ZMMDVM MMDVM HS Hat 438.8500/438.8500 CC6
EB1TK 43.32.22N 005.42.32WIN73DM 30.317km 348°NNW15:35:15ZWind 062°/004kn, Böen bis 008kn, Temp 17.22c, Regen 0.0mm, letzte 24h 8.4mm, seit 0h 8.4mm, Baro 1008.6h, Hum: 85%(3EB1TK-13)
LEEL 43.32.98N 005.41.71WIN73DN 31.520km 350°N15:30:04ZHelipuerto de El Musel: LEAS 201500Z 12007KT 080V160 9999 FEW030 SCT075 17/15 Q1005 NOSIG=
ED1ZAY 43.29.47N 005.56.54WIN73AL 35.487km 314°NW15:35:41ZRD625 438.3000/430.7000 CC1
EA1AHA 43.32.74N 005.54.36WIN73BN 38.073km 323°NW15:31:08ZWind 135°/008kn, Böen bis 010kn, Temp 18.33c, Regen 0.0mm, letzte 24h 4.6mm, seit 0h 4.6mm, Baro 1006.3h, Hum: 73%(3EA1AHA-13)
MMDVM MMDVM HS 432.5000/432.5000 CC1(2EA1AHA)
EA1JBU 43.30.80N 005.16.20WIN73IM 39.355km 47°NE15:30:04ZEA1JBU(3EA1JBU-2)
EA1JBE 43.30.90N 005.16.15WIN73IM 39.541km 47°NE15:15:03ZEA1JBU(3EA1JBE-13)
MAIN QTH http://qrz.com/db/ea1jbe(2EA1JBE-1)
EA1IZV 43.33.25N 005.55.92WIN73AN 40.099km 322°NW15:30:03ZEn proceso...
ED1ZBF 43.19.16N 005.06.74WIN73KH 41.823km 82°E15:35:35ZRD625 438.4750/430.8750 CC1
EA1DHE 43.33.98N 005.58.57WIN73AN 43.416km 319°NW15:35:03ZDMR ID: 2141195(3EA1DHE-9)
MMDVM DVS 434.3500/434.3500 CC1(2EA1DHE)

aprs.pl 5.0.011w DL3EL © 2006-2021 [482646]